Time;durP1;ratioP1;P1;durP2;ratioP2;P2;SDS_P1;SDS_P2;PMS_P1;PMS_P2;Temp;Humidity;BMP_temperature;BMP_pressure;BME280_temperature;BME280_humidity;BME280_pressure;Samples;Min_cycle;Max_cycle;Signal;HPM_P1;HPM_P2
2022/09/29 00:01:32;;;;;;;38.77;28.17;;;;;;;;;;5035466;28;20270;-67
2022/09/29 00:03:58;;;;;;;39.70;27.73;;;;;;;;;;5017726;28;20187;-67
2022/09/29 00:06:24;;;;;;;43.10;28.90;;;;;;;;;;5035789;28;20246;-67
2022/09/29 00:08:50;;;;;;;37.20;27.17;;;;;;;;;;5017641;28;20198;-67
2022/09/29 00:11:17;;;;;;;40.77;28.13;;;;;;;;;;5017543;28;20182;-68
2022/09/29 00:13:43;;;;;;;45.30;26.80;;;;;;;;;;5017496;28;20265;-68
2022/09/29 00:16:10;;;;;;;43.93;29.20;;;;;;;;;;5035254;28;20202;-67
2022/09/29 00:18:36;;;;;;;49.73;28.73;;;;;;;;;;5034912;28;20218;-67
2022/09/29 00:21:06;;;;;;;43.77;29.07;;;;;;;;;;5017303;28;20266;-67
2022/09/29 00:23:33;;;;;;;49.37;31.53;;;;;;;;;;5017326;28;20232;-68
2022/09/29 00:26:19;;;;;;;49.97;30.67;;;;;;;;;;5035355;28;20718;-68
2022/09/29 00:28:47;;;;;;;48.43;31.07;;;;;;;;;;5034520;28;20199;-67
2022/09/29 00:31:13;;;;;;;49.67;32.57;;;;;;;;;;5034791;28;20187;-67
2022/09/29 00:33:39;;;;;;;51.50;33.60;;;;;;;;;;5034795;28;20746;-67
2022/09/29 00:36:07;;;;;;;48.73;31.37;;;;;;;;;;5034936;28;20245;-67
2022/09/29 00:38:33;;;;;;;47.90;32.27;;;;;;;;;;5017069;28;20249;-68
2022/09/29 00:41:00;;;;;;;51.60;33.40;;;;;;;;;;5016996;28;20558;-67
2022/09/29 00:43:44;;;;;;;49.63;31.00;;;;;;;;;;5035034;28;20236;-68
2022/09/29 00:46:10;;;;;;;53.27;33.43;;;;;;;;;;5034453;28;20175;-67
2022/09/29 00:48:36;;;;;;;49.53;31.77;;;;;;;;;;5034706;28;20206;-66
2022/09/29 00:51:02;;;;;;;52.47;33.00;;;;;;;;;;5016538;28;20210;-67
2022/09/29 00:53:28;;;;;;;50.77;31.03;;;;;;;;;;5034615;28;20179;-68
2022/09/29 00:55:59;;;;;;;50.77;31.93;;;;;;;;;;5034491;28;20522;-67
2022/09/29 00:58:38;;;;;;;51.73;32.40;;;;;;;;;;5034289;28;20270;-67
2022/09/29 01:01:04;;;;;;;50.00;32.67;;;;;;;;;;5016569;28;20266;-67
2022/09/29 01:03:33;;;;;;;46.97;31.27;;;;;;;;;;5034582;28;20608;-67
2022/09/29 01:06:05;;;;;;;45.93;31.00;;;;;;;;;;5016465;28;20274;-67
2022/09/29 01:08:41;;;;;;;43.43;30.33;;;;;;;;;;5034031;28;20223;-67
2022/09/29 01:11:09;;;;;;;47.97;31.13;;;;;;;;;;5016393;28;20207;-67
2022/09/29 01:13:35;;;;;;;48.50;30.40;;;;;;;;;;5034074;28;20179;-68
2022/09/29 01:16:01;;;;;;;46.50;30.83;;;;;;;;;;5034042;28;20241;-67
2022/09/29 01:18:27;;;;;;;42.73;28.90;;;;;;;;;;5016277;28;20234;-67
2022/09/29 01:20:59;;;;;;;44.37;30.17;;;;;;;;;;5034016;28;20191;-67
2022/09/29 01:23:43;;;;;;;49.87;30.03;;;;;;;;;;5033888;28;20226;-67
2022/09/29 01:26:29;;;;;;;46.70;29.87;;;;;;;;;;5034155;28;20550;-67
2022/09/29 01:29:25;;;;;;;43.27;29.77;;;;;;;;;;5033794;28;20601;-67
2022/09/29 01:32:00;;;;;;;48.97;30.63;;;;;;;;;;5033971;28;20577;-67
2022/09/29 01:34:29;;;;;;;47.33;30.50;;;;;;;;;;5033779;28;20181;-67
2022/09/29 01:37:05;;;;;;;47.17;29.80;;;;;;;;;;5016067;28;20182;-67
2022/09/29 01:39:36;;;;;;;47.07;29.47;;;;;;;;;;5033866;28;20167;-67
2022/09/29 01:42:06;;;;;;;51.70;30.13;;;;;;;;;;5033678;28;20179;-68
2022/09/29 01:44:32;;;;;;;45.43;29.10;;;;;;;;;;5034177;28;20203;-67
2022/09/29 01:47:10;;;;;;;47.83;30.90;;;;;;;;;;5015864;28;20244;-66
2022/09/29 01:49:39;;;;;;;48.83;30.40;;;;;;;;;;5015616;28;20262;-68
2022/09/29 01:52:10;;;;;;;48.73;31.00;;;;;;;;;;5015917;28;20270;-67
2022/09/29 01:54:54;;;;;;;58.10;32.73;;;;;;;;;;5015882;28;20171;-67
2022/09/29 01:57:23;;;;;;;55.43;31.37;;;;;;;;;;5033845;28;20227;-67
2022/09/29 02:00:00;;;;;;;49.93;32.47;;;;;;;;;;5033407;28;20183;-67
2022/09/29 02:02:29;;;;;;;57.13;33.53;;;;;;;;;;5033515;28;20175;-67
2022/09/29 02:04:58;;;;;;;51.80;30.97;;;;;;;;;;5033454;28;20550;-67
2022/09/29 02:07:26;;;;;;;47.50;32.33;;;;;;;;;;5033377;28;20198;-66
2022/09/29 02:09:56;;;;;;;52.97;31.97;;;;;;;;;;5034950;28;20671;-67
2022/09/29 02:12:25;;;;;;;51.70;32.47;;;;;;;;;;5035508;28;20233;-67
2022/09/29 02:14:52;;;;;;;55.03;33.10;;;;;;;;;;5035529;28;20175;-67
2022/09/29 02:17:23;;;;;;;52.53;32.30;;;;;;;;;;5018126;28;20227;-67
2022/09/29 02:19:51;;;;;;;49.53;31.63;;;;;;;;;;5015945;28;20502;-69
2022/09/29 02:22:17;;;;;;;53.30;31.93;;;;;;;;;;5034156;28;20661;-67
2022/09/29 02:24:43;;;;;;;58.23;33.17;;;;;;;;;;5017748;28;20193;-68
2022/09/29 02:27:09;;;;;;;49.70;32.10;;;;;;;;;;5017785;28;20183;-66
2022/09/29 02:29:36;;;;;;;49.27;32.37;;;;;;;;;;5034951;28;20214;-67
2022/09/29 02:32:03;;;;;;;56.10;34.90;;;;;;;;;;5016735;28;20179;-67
2022/09/29 02:34:31;;;;;;;58.00;34.43;;;;;;;;;;5017388;28;20175;-67
2022/09/29 02:37:01;;;;;;;54.57;34.50;;;;;;;;;;5034655;28;20548;-67
2022/09/29 02:39:33;;;;;;;55.50;34.33;;;;;;;;;;5034376;28;20211;-67
2022/09/29 02:42:05;;;;;;;52.90;34.03;;;;;;;;;;5033322;28;20168;-66
2022/09/29 02:44:34;;;;;;;53.77;33.57;;;;;;;;;;5015348;28;20187;-67
2022/09/29 02:47:11;;;;;;;51.73;33.70;;;;;;;;;;5015449;28;20552;-66
2022/09/29 02:49:40;;;;;;;51.27;32.93;;;;;;;;;;5015370;28;20233;-67
2022/09/29 02:52:20;;;;;;;48.63;31.27;;;;;;;;;;5032925;28;20172;-67
2022/09/29 02:54:46;;;;;;;48.83;32.90;;;;;;;;;;5019099;28;20175;-67
2022/09/29 02:57:27;;;;;;;51.90;30.53;;;;;;;;;;5019067;28;20294;-67
2022/09/29 02:59:59;;;;;;;47.37;31.93;;;;;;;;;;5018970;28;20270;-69
2022/09/29 03:02:25;;;;;;;47.53;31.33;;;;;;;;;;5037215;28;20172;-67
2022/09/29 03:04:52;;;;;;;50.07;32.10;;;;;;;;;;5018785;28;20592;-66
2022/09/29 03:07:18;;;;;;;47.27;32.00;;;;;;;;;;5036418;28;20264;-67
2022/09/29 03:09:44;;;;;;;52.07;31.80;;;;;;;;;;5018684;28;20252;-67
2022/09/29 03:12:11;;;;;;;47.50;30.93;;;;;;;;;;5018510;28;20217;-67
2022/09/29 03:14:37;;;;;;;47.27;31.37;;;;;;;;;;5036360;28;20167;-67
2022/09/29 03:17:03;;;;;;;48.97;30.53;;;;;;;;;;5018369;28;20197;-68
2022/09/29 03:19:29;;;;;;;47.10;30.73;;;;;;;;;;5036432;28;20198;-68
2022/09/29 03:21:55;;;;;;;47.00;30.97;;;;;;;;;;5018328;28;20186;-68
2022/09/29 03:24:21;;;;;;;51.30;31.77;;;;;;;;;;5018325;28;20194;-68
2022/09/29 03:26:47;;;;;;;50.53;30.90;;;;;;;;;;5036129;28;20183;-67
2022/09/29 03:29:13;;;;;;;50.20;31.67;;;;;;;;;;5036073;28;20277;-68
2022/09/29 03:31:39;;;;;;;49.50;30.23;;;;;;;;;;5036140;28;20208;-67
2022/09/29 03:34:05;;;;;;;45.83;30.87;;;;;;;;;;5018294;28;20221;-68
2022/09/29 03:36:31;;;;;;;47.57;29.90;;;;;;;;;;5036031;28;20179;-67
2022/09/29 03:38:57;;;;;;;41.37;28.77;;;;;;;;;;5035789;28;20233;-67
2022/09/29 03:41:23;;;;;;;43.77;29.60;;;;;;;;;;5035840;28;20704;-67
2022/09/29 03:43:49;;;;;;;43.77;29.03;;;;;;;;;;5035692;28;20218;-68
2022/09/29 03:46:16;;;;;;;44.23;29.47;;;;;;;;;;5036178;28;20176;-68
2022/09/29 03:48:42;;;;;;;46.30;31.07;;;;;;;;;;5035645;28;20195;-67
2022/09/29 03:51:09;;;;;;;49.83;31.30;;;;;;;;;;5018022;28;20244;-68
2022/09/29 03:53:35;;;;;;;46.37;30.07;;;;;;;;;;5017849;28;20186;-67
2022/09/29 03:56:01;;;;;;;43.57;29.73;;;;;;;;;;5017953;28;20175;-67
2022/09/29 03:58:27;;;;;;;42.33;28.90;;;;;;;;;;5018083;28;20226;-68
2022/09/29 04:00:53;;;;;;;47.13;30.63;;;;;;;;;;5017587;28;20179;-68
2022/09/29 04:03:19;;;;;;;45.13;29.93;;;;;;;;;;5017652;28;20187;-68
2022/09/29 04:05:46;;;;;;;41.17;28.63;;;;;;;;;;5035439;28;20241;-67
2022/09/29 04:08:12;;;;;;;46.87;29.70;;;;;;;;;;5035299;28;20203;-68
2022/09/29 04:10:38;;;;;;;45.13;28.30;;;;;;;;;;5035384;28;20252;-67
2022/09/29 04:13:05;;;;;;;46.37;29.63;;;;;;;;;;5035342;28;20179;-68
2022/09/29 04:15:31;;;;;;;43.80;28.77;;;;;;;;;;5017514;28;20176;-68
2022/09/29 04:17:57;;;;;;;45.00;30.50;;;;;;;;;;5035571;28;20215;-67
2022/09/29 04:20:23;;;;;;;46.00;29.20;;;;;;;;;;5018002;28;20232;-67
2022/09/29 04:22:49;;;;;;;46.87;28.73;;;;;;;;;;5036280;28;20221;-67
2022/09/29 04:25:16;;;;;;;44.47;29.57;;;;;;;;;;5035723;28;20183;-67
2022/09/29 04:27:42;;;;;;;46.40;30.13;;;;;;;;;;5035311;28;20203;-67
2022/09/29 04:30:08;;;;;;;46.23;30.40;;;;;;;;;;5035878;28;20663;-67
2022/09/29 04:32:34;;;;;;;45.00;30.87;;;;;;;;;;5035469;28;20175;-67
2022/09/29 04:35:00;;;;;;;45.80;29.93;;;;;;;;;;5034999;28;20179;-67
2022/09/29 04:37:27;;;;;;;45.67;29.43;;;;;;;;;;5034726;28;20195;-67
2022/09/29 04:39:53;;;;;;;41.60;29.00;;;;;;;;;;5034719;28;20229;-67
2022/09/29 04:42:19;;;;;;;44.63;28.33;;;;;;;;;;5016901;28;20198;-67
2022/09/29 04:44:45;;;;;;;43.53;29.00;;;;;;;;;;5016938;28;20556;-68
2022/09/29 04:47:11;;;;;;;41.90;29.00;;;;;;;;;;5016744;28;20622;-68
2022/09/29 04:49:37;;;;;;;48.07;30.20;;;;;;;;;;5016779;28;20242;-68
2022/09/29 04:52:03;;;;;;;42.07;29.40;;;;;;;;;;5034427;28;20171;-68
2022/09/29 04:54:33;;;;;;;48.13;28.77;;;;;;;;;;5034682;28;20222;-68
2022/09/29 04:57:00;;;;;;;42.03;28.77;;;;;;;;;;5034254;28;20705;-68
2022/09/29 04:59:26;;;;;;;44.33;28.57;;;;;;;;;;5016861;28;20218;-68
2022/09/29 05:01:52;;;;;;;42.73;29.37;;;;;;;;;;5016560;28;20627;-67
2022/09/29 05:04:18;;;;;;;46.93;30.10;;;;;;;;;;5034896;28;20181;-68
2022/09/29 05:06:44;;;;;;;43.17;28.10;;;;;;;;;;5034140;28;20179;-68
2022/09/29 05:09:10;;;;;;;44.53;28.47;;;;;;;;;;5033755;28;20333;-66
2022/09/29 05:11:36;;;;;;;39.50;28.30;;;;;;;;;;5016315;28;20182;-68
2022/09/29 05:14:02;;;;;;;41.33;28.43;;;;;;;;;;5034140;28;20179;-67
2022/09/29 05:16:28;;;;;;;42.07;29.27;;;;;;;;;;5015691;28;20179;-67
2022/09/29 05:18:54;;;;;;;41.43;28.47;;;;;;;;;;5034229;28;20573;-68
2022/09/29 05:21:20;;;;;;;42.90;28.60;;;;;;;;;;5033884;28;20699;-68
2022/09/29 05:23:45;;;;;;;39.60;27.83;;;;;;;;;;5034087;28;20178;-67
2022/09/29 05:26:12;;;;;;;44.10;28.47;;;;;;;;;;5033836;28;20179;-67
2022/09/29 05:28:39;;;;;;;43.30;29.00;;;;;;;;;;5016093;28;20210;-67
2022/09/29 05:31:06;;;;;;;44.73;29.60;;;;;;;;;;5031360;23;20284;-72
2022/09/29 05:33:32;;;;;;;45.50;29.07;;;;;;;;;;5033636;28;20600;-72
2022/09/29 05:35:58;;;;;;;43.90;28.63;;;;;;;;;;5033796;28;20228;-72
2022/09/29 05:38:24;;;;;;;44.27;29.00;;;;;;;;;;5015824;28;20647;-71
2022/09/29 05:40:51;;;;;;;42.53;28.40;;;;;;;;;;5033518;28;20203;-72
2022/09/29 05:43:17;;;;;;;49.37;29.97;;;;;;;;;;5033386;28;20179;-72
2022/09/29 05:45:43;;;;;;;39.63;28.90;;;;;;;;;;5015800;28;20179;-72
2022/09/29 05:48:09;;;;;;;40.70;27.60;;;;;;;;;;5033786;28;20723;-72
2022/09/29 05:50:42;;;;;;;42.77;28.37;;;;;;;;;;5033253;28;20206;-70
2022/09/29 05:53:08;;;;;;;44.87;29.53;;;;;;;;;;5033684;28;20163;-72
2022/09/29 05:55:37;;;;;;;42.83;28.60;;;;;;;;;;5015524;28;20266;-72
2022/09/29 05:58:04;;;;;;;40.00;27.90;;;;;;;;;;5033194;28;20179;-71
2022/09/29 06:00:33;;;;;;;43.23;28.43;;;;;;;;;;5033112;28;20195;-72
2022/09/29 06:03:00;;;;;;;40.53;29.03;;;;;;;;;;5033241;28;20608;-71
2022/09/29 06:05:26;;;;;;;39.67;28.07;;;;;;;;;;5033383;28;20640;-71
2022/09/29 06:07:52;;;;;;;41.23;28.20;;;;;;;;;;5015441;28;20273;-72
2022/09/29 06:10:18;;;;;;;42.27;28.70;;;;;;;;;;5033204;28;20591;-73
2022/09/29 06:12:44;;;;;;;40.80;28.57;;;;;;;;;;5033323;28;20186;-72
2022/09/29 06:15:11;;;;;;;42.33;29.07;;;;;;;;;;5033079;28;20183;-72
2022/09/29 06:17:37;;;;;;;51.77;29.67;;;;;;;;;;5033309;28;20179;-72
2022/09/29 06:20:04;;;;;;;39.50;28.63;;;;;;;;;;5033336;28;20199;-72
2022/09/29 06:22:30;;;;;;;42.90;30.57;;;;;;;;;;5033004;28;20229;-72
2022/09/29 06:24:56;;;;;;;41.90;30.27;;;;;;;;;;5032931;28;20171;-72
2022/09/29 06:27:22;;;;;;;43.03;31.03;;;;;;;;;;5015750;28;20187;-71
2022/09/29 06:29:48;;;;;;;41.00;29.77;;;;;;;;;;5037371;28;20548;-72
2022/09/29 06:32:14;;;;;;;47.97;30.33;;;;;;;;;;5037146;28;20218;-71
2022/09/29 06:37:33;;;;;;;44.80;30.13;;;;;;;;;;5020424;28;20175;-72
2022/09/29 06:37:36;;;;;;;48.37;30.67;;;;;;;;;;5037175;28;20178;-72
2022/09/29 06:40:06;;;;;;;45.33;30.57;;;;;;;;;;5037426;28;20166;-72
2022/09/29 06:42:33;;;;;;;45.20;31.20;;;;;;;;;;5019152;28;20174;-72
2022/09/29 06:44:59;;;;;;;46.03;31.60;;;;;;;;;;5036689;28;20186;-72
2022/09/29 06:47:25;;;;;;;49.80;32.03;;;;;;;;;;5018989;28;20179;-73
2022/09/29 06:49:50;;;;;;;47.00;33.03;;;;;;;;;;5036543;28;20215;-70
2022/09/29 06:52:17;;;;;;;50.23;33.67;;;;;;;;;;5018628;28;20229;-72
2022/09/29 06:54:43;;;;;;;45.13;32.03;;;;;;;;;;5036523;28;20564;-71
2022/09/29 06:57:09;;;;;;;44.87;31.90;;;;;;;;;;5019055;28;20214;-72
2022/09/29 06:59:35;;;;;;;41.40;30.43;;;;;;;;;;5018683;28;20270;-73
2022/09/29 07:02:01;;;;;;;49.13;32.07;;;;;;;;;;5036424;28;20722;-73
2022/09/29 07:04:28;;;;;;;46.83;33.40;;;;;;;;;;5018652;28;20570;-72
2022/09/29 07:06:54;;;;;;;49.87;33.30;;;;;;;;;;5036437;28;20187;-72
2022/09/29 07:09:22;;;;;;;45.17;32.57;;;;;;;;;;5036182;28;20203;-72
2022/09/29 07:11:51;;;;;;;47.80;34.53;;;;;;;;;;5036189;28;20218;-71
2022/09/29 07:14:18;;;;;;;52.53;36.23;;;;;;;;;;5036183;28;20179;-71
2022/09/29 07:16:47;;;;;;;49.10;35.07;;;;;;;;;;5036640;28;20224;-72
2022/09/29 07:19:13;;;;;;;46.83;32.80;;;;;;;;;;5036029;28;20194;-70
2022/09/29 07:21:38;;;;;;;45.27;31.43;;;;;;;;;;5035897;28;20195;-70
2022/09/29 07:24:05;;;;;;;44.30;29.97;;;;;;;;;;5036135;28;20183;-69
2022/09/29 07:26:31;;;;;;;38.97;28.13;;;;;;;;;;5036489;28;20179;-70
2022/09/29 07:28:56;;;;;;;38.80;25.60;;;;;;;;;;5036164;28;20194;-71
2022/09/29 07:31:22;;;;;;;32.77;25.70;;;;;;;;;;5017821;28;20215;-71
2022/09/29 07:33:49;;;;;;;42.13;24.70;;;;;;;;;;5018062;28;20179;-69
2022/09/29 07:36:16;;;;;;;33.93;25.30;;;;;;;;;;5035953;28;20544;-69
2022/09/29 07:38:45;;;;;;;33.13;26.40;;;;;;;;;;5035308;28;20199;-69
2022/09/29 07:41:11;;;;;;;33.17;27.07;;;;;;;;;;5035728;28;20194;-70
2022/09/29 07:43:37;;;;;;;37.63;28.43;;;;;;;;;;5036160;28;20699;-70
2022/09/29 07:46:04;;;;;;;42.33;27.77;;;;;;;;;;5035655;28;20218;-70
2022/09/29 07:48:31;;;;;;;36.67;29.53;;;;;;;;;;5035687;28;20266;-70
2022/09/29 07:51:04;;;;;;;33.90;27.07;;;;;;;;;;5035914;28;20341;-70
2022/09/29 07:53:31;;;;;;;37.63;28.70;;;;;;;;;;5036081;28;20229;-70
2022/09/29 07:56:07;;;;;;;37.43;28.17;;;;;;;;;;5017728;28;20183;-70
2022/09/29 07:58:34;;;;;;;37.20;28.17;;;;;;;;;;5035606;28;20179;-70
2022/09/29 08:01:00;;;;;;;33.93;28.00;;;;;;;;;;5017483;28;20199;-70
2022/09/29 08:03:28;;;;;;;34.47;25.90;;;;;;;;;;5035251;28;20651;-70
2022/09/29 08:05:55;;;;;;;34.63;26.53;;;;;;;;;;5035445;28;20313;-68
2022/09/29 08:08:21;;;;;;;31.93;25.27;;;;;;;;;;5035221;28;20179;-69
2022/09/29 08:10:47;;;;;;;36.43;26.33;;;;;;;;;;5034956;28;20744;-69
2022/09/29 08:13:13;;;;;;;32.60;25.63;;;;;;;;;;5035510;28;20539;-70
2022/09/29 08:15:39;;;;;;;35.20;26.60;;;;;;;;;;5035044;28;20592;-70
2022/09/29 08:18:05;;;;;;;53.03;41.90;;;;;;;;;;5034858;28;20178;-69
2022/09/29 08:20:31;;;;;;;45.43;35.63;;;;;;;;;;5034794;28;20278;-69
2022/09/29 08:22:57;;;;;;;38.20;29.80;;;;;;;;;;5034806;28;20526;-69
2022/09/29 08:25:24;;;;;;;35.20;29.07;;;;;;;;;;5034742;28;20189;-69
2022/09/29 08:27:51;;;;;;;28.13;25.07;;;;;;;;;;5034823;28;20209;-69
2022/09/29 08:30:17;;;;;;;31.10;23.93;;;;;;;;;;5016683;28;20299;-69
2022/09/29 08:32:44;;;;;;;27.80;23.43;;;;;;;;;;5034802;28;20219;-68
2022/09/29 08:35:09;;;;;;;29.87;23.60;;;;;;;;;;5034638;28;20179;-69
2022/09/29 08:37:35;;;;;;;31.47;23.13;;;;;;;;;;5017029;28;20237;-69
2022/09/29 08:40:02;;;;;;;31.03;24.90;;;;;;;;;;5034600;28;20206;-69
2022/09/29 08:42:47;;;;;;;27.50;23.00;;;;;;;;;;5016689;28;20203;-70
2022/09/29 08:45:16;;;;;;;31.00;23.17;;;;;;;;;;5016773;28;20534;-71
2022/09/29 08:47:45;;;;;;;24.57;21.90;;;;;;;;;;5016636;28;20187;-71
2022/09/29 08:50:31;;;;;;;25.63;22.67;;;;;;;;;;5015747;28;20215;-69
2022/09/29 08:53:04;;;;;;;22.93;20.37;;;;;;;;;;5034116;28;20566;-69
2022/09/29 08:55:30;;;;;;;25.40;20.07;;;;;;;;;;5034518;28;20164;-69
2022/09/29 08:57:58;;;;;;;22.37;19.30;;;;;;;;;;5034339;28;20178;-69
2022/09/29 09:00:29;;;;;;;21.73;18.73;;;;;;;;;;5016514;28;20179;-69
2022/09/29 09:03:04;;;;;;;22.10;17.97;;;;;;;;;;5034750;28;20167;-69
2022/09/29 09:05:50;;;;;;;19.10;17.20;;;;;;;;;;5034401;28;20167;-70
2022/09/29 09:08:21;;;;;;;21.33;16.30;;;;;;;;;;5034131;28;20305;-69
2022/09/29 09:10:58;;;;;;;17.23;15.40;;;;;;;;;;5034094;28;20211;-70
2022/09/29 09:13:40;;;;;;;17.97;15.43;;;;;;;;;;5034283;28;20250;-70
2022/09/29 09:16:35;;;;;;;17.03;14.53;;;;;;;;;;5033856;28;20178;-69
2022/09/29 09:19:20;;;;;;;16.70;14.97;;;;;;;;;;5016691;28;20223;-69
2022/09/29 09:21:52;;;;;;;15.93;14.10;;;;;;;;;;5033827;28;20226;-69
2022/09/29 09:24:18;;;;;;;16.47;13.27;;;;;;;;;;5034059;28;20182;-69
2022/09/29 09:26:45;;;;;;;17.77;13.57;;;;;;;;;;5033849;28;20187;-69
2022/09/29 09:29:27;;;;;;;18.30;13.27;;;;;;;;;;5015830;28;20183;-69
2022/09/29 09:32:00;;;;;;;15.40;13.40;;;;;;;;;;5033365;28;20232;-69
2022/09/29 09:34:30;;;;;;;15.27;13.13;;;;;;;;;;5033527;28;20198;-69
2022/09/29 09:37:04;;;;;;;26.00;13.37;;;;;;;;;;5015722;28;20188;-70
2022/09/29 09:39:30;;;;;;;18.40;13.57;;;;;;;;;;5015770;28;20185;-70
2022/09/29 09:41:58;;;;;;;20.20;13.70;;;;;;;;;;5015606;28;20199;-70
2022/09/29 09:44:34;;;;;;;17.57;13.40;;;;;;;;;;5033602;28;20179;-69
2022/09/29 09:47:23;;;;;;;15.40;12.53;;;;;;;;;;5033723;28;20163;-69
2022/09/29 09:49:52;;;;;;;15.63;12.30;;;;;;;;;;5033611;28;20666;-68
2022/09/29 09:52:24;;;;;;;14.93;13.27;;;;;;;;;;5015446;28;20210;-69
2022/09/29 09:54:52;;;;;;;17.17;13.53;;;;;;;;;;5015453;28;20230;-69
2022/09/29 09:57:37;;;;;;;16.73;13.47;;;;;;;;;;5033455;28;20181;-69
2022/09/29 10:00:14;;;;;;;17.40;13.87;;;;;;;;;;5033234;28;20171;-69
2022/09/29 10:02:45;;;;;;;15.27;13.30;;;;;;;;;;5015303;28;20222;-69
2022/09/29 10:05:12;;;;;;;15.93;13.07;;;;;;;;;;5015395;28;20183;-69
2022/09/29 10:07:38;;;;;;;18.40;12.83;;;;;;;;;;5015532;28;20272;-69
2022/09/29 10:10:12;;;;;;;15.93;12.80;;;;;;;;;;5015520;28;20324;-69
2022/09/29 10:12:38;;;;;;;16.20;12.07;;;;;;;;;;5033294;28;20214;-69
2022/09/29 10:15:05;;;;;;;12.87;11.33;;;;;;;;;;5032942;28;20183;-69
2022/09/29 10:17:37;;;;;;;17.90;10.87;;;;;;;;;;5032936;28;20261;-69
2022/09/29 10:20:07;;;;;;;12.87;10.67;;;;;;;;;;5015339;28;20171;-69
2022/09/29 10:22:33;;;;;;;12.03;7.40;;;;;;;;;;5032754;28;20250;-69
2022/09/29 10:25:20;;;;;;;12.60;8.07;;;;;;;;;;5032980;28;20262;-67
2022/09/29 10:27:47;;;;;;;12.60;7.77;;;;;;;;;;5015262;28;20210;-68
2022/09/29 10:30:22;;;;;;;12.60;8.10;;;;;;;;;;5032829;28;20294;-68
2022/09/29 10:32:49;;;;;;;13.60;6.67;;;;;;;;;;5015327;28;20551;-68
2022/09/29 10:35:22;;;;;;;8.23;6.13;;;;;;;;;;5033137;28;20167;-68
2022/09/29 10:37:53;;;;;;;9.07;6.50;;;;;;;;;;5032810;28;20646;-68
2022/09/29 10:40:20;;;;;;;10.87;6.43;;;;;;;;;;5033281;28;20167;-68
2022/09/29 10:42:49;;;;;;;8.70;6.27;;;;;;;;;;5015099;28;20590;-68
2022/09/29 10:45:26;;;;;;;6.30;5.53;;;;;;;;;;5032706;28;20179;-68
2022/09/29 10:47:57;;;;;;;7.40;5.97;;;;;;;;;;5033196;28;20202;-68
2022/09/29 10:50:28;;;;;;;7.87;6.07;;;;;;;;;;5032658;28;20230;-68
2022/09/29 10:53:03;;;;;;;10.57;6.90;;;;;;;;;;5032502;28;20167;-67
2022/09/29 10:55:33;;;;;;;7.67;6.60;;;;;;;;;;5032559;28;20717;-68
2022/09/29 10:58:00;;;;;;;12.23;7.43;;;;;;;;;;5014851;28;20179;-68
2022/09/29 11:00:37;;;;;;;7.97;6.13;;;;;;;;;;5014872;28;20274;-68
2022/09/29 11:03:41;;;;;;;8.37;5.33;;;;;;;;;;5032750;28;20178;-68
2022/09/29 11:06:10;;;;;;;6.40;5.00;;;;;;;;;;4952362;29;20584;-68
2022/09/29 11:08:55;;;;;;;9.10;5.13;;;;;;;;;;4936470;29;20558;-67
2022/09/29 11:11:24;;;;;;;5.57;4.80;;;;;;;;;;5002015;28;20280;-68
2022/09/29 11:13:51;;;;;;;5.77;3.90;;;;;;;;;;5033628;28;20183;-68
2022/09/29 11:16:19;;;;;;;5.87;4.80;;;;;;;;;;5036126;28;20647;-68
2022/09/29 11:18:51;;;;;;;4.83;3.77;;;;;;;;;;5018154;28;20686;-67
2022/09/29 11:21:20;;;;;;;5.70;4.50;;;;;;;;;;5017974;28;20191;-68
2022/09/29 11:23:55;;;;;;;5.40;4.50;;;;;;;;;;5018119;28;20265;-67
2022/09/29 11:26:25;;;;;;;7.83;4.97;;;;;;;;;;5036296;28;20612;-70
2022/09/29 11:29:12;;;;;;;8.20;4.57;;;;;;;;;;5018090;28;20179;-68
2022/09/29 11:31:44;;;;;;;5.40;4.23;;;;;;;;;;4995873;28;20257;-69
2022/09/29 11:34:19;;;;;;;6.70;4.47;;;;;;;;;;5036094;28;20171;-68
2022/09/29 11:36:45;;;;;;;4.80;4.00;;;;;;;;;;5035922;28;20179;-67
2022/09/29 11:39:18;;;;;;;6.43;4.30;;;;;;;;;;5035723;28;20225;-67
2022/09/29 11:41:56;;;;;;;6.23;4.27;;;;;;;;;;5036223;28;20238;-67
2022/09/29 11:44:41;;;;;;;5.63;4.00;;;;;;;;;;5018226;28;20269;-67
2022/09/29 11:47:23;;;;;;;5.50;3.33;;;;;;;;;;5035603;28;20190;-66
2022/09/29 11:49:58;;;;;;;6.17;2.93;;;;;;;;;;5017746;28;20203;-67
2022/09/29 11:52:24;;;;;;;4.37;3.30;;;;;;;;;;5017526;28;20225;-67
2022/09/29 11:54:56;;;;;;;4.10;3.70;;;;;;;;;;5035331;28;20550;-67
2022/09/29 11:57:25;;;;;;;5.63;4.17;;;;;;;;;;5017931;28;20179;-66
2022/09/29 11:59:54;;;;;;;4.43;3.70;;;;;;;;;;5035378;28;20187;-67
2022/09/29 12:02:35;;;;;;;5.67;3.53;;;;;;;;;;5035504;28;20205;-67
2022/09/29 12:05:16;;;;;;;3.47;3.17;;;;;;;;;;5035576;28;20589;-67
2022/09/29 12:08:00;;;;;;;8.77;3.43;;;;;;;;;;5035192;28;20199;-67
2022/09/29 12:10:43;;;;;;;4.93;3.17;;;;;;;;;;5035596;28;20191;-66
2022/09/29 12:13:09;;;;;;;3.40;3.07;;;;;;;;;;5035191;28;20160;-67
2022/09/29 12:15:35;;;;;;;8.03;3.10;;;;;;;;;;5035155;28;20185;-67
2022/09/29 12:18:10;;;;;;;5.10;3.03;;;;;;;;;;5035031;28;20179;-67
2022/09/29 12:20:37;;;;;;;5.83;3.43;;;;;;;;;;5035243;28;20608;-67
2022/09/29 12:23:07;;;;;;;4.50;3.10;;;;;;;;;;5034850;28;20550;-66
2022/09/29 12:25:35;;;;;;;4.47;3.40;;;;;;;;;;5034003;28;20167;-67
2022/09/29 12:28:04;;;;;;;4.23;2.93;;;;;;;;;;5017011;28;20194;-67
2022/09/29 12:30:35;;;;;;;9.67;3.27;;;;;;;;;;5034583;28;20211;-68
2022/09/29 12:33:07;;;;;;;9.63;3.20;;;;;;;;;;5035430;28;20602;-68
2022/09/29 12:35:33;;;;;;;4.07;2.90;;;;;;;;;;5035093;28;20591;-69
2022/09/29 12:38:06;;;;;;;6.67;3.20;;;;;;;;;;5034841;28;20176;-68
2022/09/29 12:40:36;;;;;;;4.97;3.27;;;;;;;;;;5016901;28;20203;-68
2022/09/29 12:43:02;;;;;;;4.43;2.90;;;;;;;;;;5034967;28;20178;-68
2022/09/29 12:45:31;;;;;;;5.07;3.23;;;;;;;;;;5034792;28;20183;-68
2022/09/29 12:48:05;;;;;;;5.83;3.17;;;;;;;;;;5034539;28;20254;-68
2022/09/29 12:50:40;;;;;;;6.67;3.50;;;;;;;;;;5034727;28;20214;-68
2022/09/29 12:53:11;;;;;;;5.13;3.03;;;;;;;;;;5034449;28;20162;-68
2022/09/29 12:55:43;;;;;;;4.07;2.90;;;;;;;;;;5034353;28;20682;-68
2022/09/29 12:58:13;;;;;;;4.60;3.00;;;;;;;;;;5034821;28;20250;-67
2022/09/29 13:00:40;;;;;;;3.30;2.70;;;;;;;;;;5034225;28;20686;-68
2022/09/29 13:03:06;;;;;;;5.10;3.63;;;;;;;;;;5034632;28;20663;-68
2022/09/29 13:05:35;;;;;;;8.03;3.83;;;;;;;;;;5016438;28;20179;-69
2022/09/29 13:08:10;;;;;;;6.93;3.97;;;;;;;;;;5034109;28;20274;-68
2022/09/29 13:10:39;;;;;;;3.63;2.83;;;;;;;;;;5016365;28;20218;-69
2022/09/29 13:13:11;;;;;;;5.77;2.97;;;;;;;;;;5034297;28;20277;-67
2022/09/29 13:15:45;;;;;;;4.07;2.10;;;;;;;;;;5016309;28;20180;-67
2022/09/29 13:18:24;;;;;;;2.43;2.20;;;;;;;;;;5016554;28;20181;-67
2022/09/29 13:20:50;;;;;;;3.00;2.20;;;;;;;;;;5016167;28;20202;-67
2022/09/29 13:23:19;;;;;;;5.43;2.40;;;;;;;;;;5016421;28;20185;-67
2022/09/29 13:25:48;;;;;;;2.63;2.40;;;;;;;;;;5016083;28;20190;-67
2022/09/29 13:28:23;;;;;;;5.10;2.40;;;;;;;;;;5033766;28;20182;-67
2022/09/29 13:30:49;;;;;;;6.50;2.83;;;;;;;;;;5033566;28;20694;-66
2022/09/29 13:33:18;;;;;;;4.17;2.90;;;;;;;;;;5016065;28;20171;-67
2022/09/29 13:35:48;;;;;;;4.80;2.80;;;;;;;;;;5034253;28;20540;-67
2022/09/29 13:38:16;;;;;;;5.60;3.20;;;;;;;;;;5033336;28;20266;-67
2022/09/29 13:41:02;;;;;;;6.40;3.00;;;;;;;;;;5033647;28;20683;-65
2022/09/29 13:43:48;;;;;;;5.13;2.80;;;;;;;;;;5033725;28;20257;-67
2022/09/29 13:46:25;;;;;;;5.70;2.67;;;;;;;;;;5033474;28;20186;-67
2022/09/29 13:48:54;;;;;;;4.97;2.50;;;;;;;;;;5034608;28;20631;-64
2022/09/29 13:51:29;;;;;;;4.93;2.50;;;;;;;;;;5033355;28;20268;-64
2022/09/29 13:54:13;;;;;;;6.33;2.67;;;;;;;;;;5016874;28;20669;-63
2022/09/29 13:56:39;;;;;;;6.63;2.70;;;;;;;;;;5035764;28;20167;-64
2022/09/29 13:59:13;;;;;;;3.63;2.53;;;;;;;;;;5016741;28;20187;-65
2022/09/29 14:01:40;;;;;;;3.57;2.70;;;;;;;;;;5033293;28;20193;-63
2022/09/29 14:04:25;;;;;;;8.17;3.30;;;;;;;;;;5015556;28;20670;-64
2022/09/29 14:06:51;;;;;;;6.63;2.60;;;;;;;;;;5033248;28;20179;-64
2022/09/29 14:09:21;;;;;;;3.03;2.37;;;;;;;;;;5015496;28;20187;-64
2022/09/29 14:11:48;;;;;;;4.23;2.97;;;;;;;;;;5033497;28;20293;-64
2022/09/29 14:14:14;;;;;;;5.30;2.57;;;;;;;;;;5033379;28;20672;-64
2022/09/29 14:16:43;;;;;;;6.83;2.30;;;;;;;;;;5015472;28;20269;-64
2022/09/29 14:19:25;;;;;;;2.60;2.10;;;;;;;;;;5015363;28;20715;-63
2022/09/29 14:21:53;;;;;;;4.63;2.53;;;;;;;;;;5033176;28;20191;-64
2022/09/29 14:24:41;;;;;;;4.20;2.77;;;;;;;;;;5033354;28;20172;-65
2022/09/29 14:27:25;;;;;;;5.80;2.60;;;;;;;;;;5015368;28;20186;-66
2022/09/29 14:29:54;;;;;;;4.40;2.43;;;;;;;;;;5032912;28;20205;-65
2022/09/29 14:32:23;;;;;;;4.47;2.57;;;;;;;;;;5015011;28;20211;-65
2022/09/29 14:34:52;;;;;;;4.57;2.80;;;;;;;;;;5033443;28;20244;-65
2022/09/29 14:37:20;;;;;;;5.83;2.10;;;;;;;;;;5032834;28;20271;-65
2022/09/29 14:40:27;;;;;;;2.97;2.20;;;;;;;;;;5015061;28;20237;-65